sensor_id;sensor_type;location;lat;lon;timestamp;P1;durP1;ratioP1;P2;durP2;ratioP2
42146;SDS011;27815;43.410;11.852;2022-07-01T00:00:03;3.03;;;1.20;;
42146;SDS011;27815;43.410;11.852;2022-07-01T00:04:15;2.97;;;1.20;;
42146;SDS011;27815;43.410;11.852;2022-07-01T00:08:20;2.15;;;1.08;;
42146;SDS011;27815;43.410;11.852;2022-07-01T00:12:23;2.70;;;1.20;;
42146;SDS011;27815;43.410;11.852;2022-07-01T00:16:27;2.75;;;0.90;;
42146;SDS011;27815;43.410;11.852;2022-07-01T00:20:32;3.25;;;1.40;;
42146;SDS011;27815;43.410;11.852;2022-07-01T00:24:36;3.28;;;1.30;;
42146;SDS011;27815;43.410;11.852;2022-07-01T00:28:40;4.38;;;1.40;;
42146;SDS011;27815;43.410;11.852;2022-07-01T00:32:45;2.28;;;1.17;;
42146;SDS011;27815;43.410;11.852;2022-07-01T00:36:49;3.55;;;1.30;;
42146;SDS011;27815;43.410;11.852;2022-07-01T00:40:54;2.38;;;1.17;;
42146;SDS011;27815;43.410;11.852;2022-07-01T00:44:58;3.35;;;1.40;;
42146;SDS011;27815;43.410;11.852;2022-07-01T00:49:01;3.58;;;1.58;;
42146;SDS011;27815;43.410;11.852;2022-07-01T00:53:05;3.10;;;1.50;;
42146;SDS011;27815;43.410;11.852;2022-07-01T00:57:08;3.90;;;1.38;;
42146;SDS011;27815;43.410;11.852;2022-07-01T01:01:17;2.60;;;1.27;;
42146;SDS011;27815;43.410;11.852;2022-07-01T01:05:20;4.38;;;1.35;;
42146;SDS011;27815;43.410;11.852;2022-07-01T01:09:25;4.20;;;1.50;;
42146;SDS011;27815;43.410;11.852;2022-07-01T01:13:28;4.38;;;1.55;;
42146;SDS011;27815;43.410;11.852;2022-07-01T01:17:33;5.35;;;1.55;;
42146;SDS011;27815;43.410;11.852;2022-07-01T01:21:37;5.22;;;1.60;;
42146;SDS011;27815;43.410;11.852;2022-07-01T01:25:42;2.55;;;1.23;;
42146;SDS011;27815;43.410;11.852;2022-07-01T01:29:46;3.60;;;1.80;;
42146;SDS011;27815;43.410;11.852;2022-07-01T01:33:51;2.15;;;1.20;;
42146;SDS011;27815;43.410;11.852;2022-07-01T01:37:54;4.78;;;1.60;;
42146;SDS011;27815;43.410;11.852;2022-07-01T01:41:58;6.35;;;1.48;;
42146;SDS011;27815;43.410;11.852;2022-07-01T01:46:01;6.00;;;1.58;;
42146;SDS011;27815;43.410;11.852;2022-07-01T01:50:06;3.13;;;1.45;;
42146;SDS011;27815;43.410;11.852;2022-07-01T01:54:10;4.50;;;1.50;;
42146;SDS011;27815;43.410;11.852;2022-07-01T01:58:13;5.65;;;1.70;;
42146;SDS011;27815;43.410;11.852;2022-07-01T02:02:17;6.00;;;1.90;;
42146;SDS011;27815;43.410;11.852;2022-07-01T02:06:20;3.50;;;1.30;;
42146;SDS011;27815;43.410;11.852;2022-07-01T02:10:23;6.38;;;1.85;;
42146;SDS011;27815;43.410;11.852;2022-07-01T02:14:26;2.63;;;1.58;;
42146;SDS011;27815;43.410;11.852;2022-07-01T02:18:29;2.40;;;1.42;;
42146;SDS011;27815;43.410;11.852;2022-07-01T02:22:34;3.60;;;1.50;;
42146;SDS011;27815;43.410;11.852;2022-07-01T02:26:39;3.00;;;1.40;;
42146;SDS011;27815;43.410;11.852;2022-07-01T02:30:43;3.20;;;1.55;;
42146;SDS011;27815;43.410;11.852;2022-07-01T02:34:47;3.38;;;1.50;;
42146;SDS011;27815;43.410;11.852;2022-07-01T02:38:52;4.03;;;1.95;;
42146;SDS011;27815;43.410;11.852;2022-07-01T02:42:58;4.25;;;1.35;;
42146;SDS011;27815;43.410;11.852;2022-07-01T02:47:03;3.67;;;1.40;;
42146;SDS011;27815;43.410;11.852;2022-07-01T02:51:06;4.13;;;1.42;;
42146;SDS011;27815;43.410;11.852;2022-07-01T02:55:12;3.45;;;1.80;;
42146;SDS011;27815;43.410;11.852;2022-07-01T02:59:17;3.25;;;1.50;;
42146;SDS011;27815;43.410;11.852;2022-07-01T03:03:24;3.50;;;1.42;;
42146;SDS011;27815;43.410;11.852;2022-07-01T03:07:28;3.55;;;1.70;;
42146;SDS011;27815;43.410;11.852;2022-07-01T03:11:33;3.80;;;1.60;;
42146;SDS011;27815;43.410;11.852;2022-07-01T03:15:37;3.55;;;1.77;;
42146;SDS011;27815;43.410;11.852;2022-07-01T03:19:41;3.63;;;1.45;;
42146;SDS011;27815;43.410;11.852;2022-07-01T03:23:46;3.05;;;1.40;;
42146;SDS011;27815;43.410;11.852;2022-07-01T03:27:52;2.30;;;1.23;;
42146;SDS011;27815;43.410;11.852;2022-07-01T03:31:59;4.10;;;1.83;;
42146;SDS011;27815;43.410;11.852;2022-07-01T03:36:03;5.05;;;1.60;;
42146;SDS011;27815;43.410;11.852;2022-07-01T03:40:06;6.75;;;2.17;;
42146;SDS011;27815;43.410;11.852;2022-07-01T03:44:13;6.15;;;1.63;;
42146;SDS011;27815;43.410;11.852;2022-07-01T03:48:20;3.45;;;1.73;;
42146;SDS011;27815;43.410;11.852;2022-07-01T03:52:23;3.83;;;1.75;;
42146;SDS011;27815;43.410;11.852;2022-07-01T03:56:26;3.42;;;2.00;;
42146;SDS011;27815;43.410;11.852;2022-07-01T04:00:36;3.50;;;1.50;;
42146;SDS011;27815;43.410;11.852;2022-07-01T04:04:40;4.07;;;1.85;;
42146;SDS011;27815;43.410;11.852;2022-07-01T04:08:45;4.03;;;1.80;;
42146;SDS011;27815;43.410;11.852;2022-07-01T04:12:50;5.35;;;1.92;;
42146;SDS011;27815;43.410;11.852;2022-07-01T04:17:13;4.47;;;1.67;;
42146;SDS011;27815;43.410;11.852;2022-07-01T04:21:19;3.60;;;1.58;;
42146;SDS011;27815;43.410;11.852;2022-07-01T04:25:43;5.33;;;2.07;;
42146;SDS011;27815;43.410;11.852;2022-07-01T04:29:46;3.47;;;1.80;;
42146;SDS011;27815;43.410;11.852;2022-07-01T04:33:50;6.32;;;2.15;;
42146;SDS011;27815;43.410;11.852;2022-07-01T04:37:55;5.15;;;1.95;;
42146;SDS011;27815;43.410;11.852;2022-07-01T04:42:02;2.85;;;1.58;;
42146;SDS011;27815;43.410;11.852;2022-07-01T04:46:07;3.55;;;1.90;;
42146;SDS011;27815;43.410;11.852;2022-07-01T04:50:10;4.25;;;1.60;;
42146;SDS011;27815;43.410;11.852;2022-07-01T04:54:12;5.20;;;1.83;;
42146;SDS011;27815;43.410;11.852;2022-07-01T04:58:15;4.78;;;1.60;;
42146;SDS011;27815;43.410;11.852;2022-07-01T05:02:18;8.10;;;1.95;;
42146;SDS011;27815;43.410;11.852;2022-07-01T05:06:21;9.05;;;2.58;;
42146;SDS011;27815;43.410;11.852;2022-07-01T05:10:24;8.00;;;2.30;;
42146;SDS011;27815;43.410;11.852;2022-07-01T05:14:31;6.47;;;2.20;;
42146;SDS011;27815;43.410;11.852;2022-07-01T05:18:34;6.68;;;2.58;;
42146;SDS011;27815;43.410;11.852;2022-07-01T05:22:59;10.02;;;3.10;;
42146;SDS011;27815;43.410;11.852;2022-07-01T05:27:02;11.88;;;3.13;;
42146;SDS011;27815;43.410;11.852;2022-07-01T05:31:06;4.10;;;2.28;;
42146;SDS011;27815;43.410;11.852;2022-07-01T05:35:08;5.80;;;3.45;;
42146;SDS011;27815;43.410;11.852;2022-07-01T05:39:12;8.75;;;3.15;;
42146;SDS011;27815;43.410;11.852;2022-07-01T05:43:15;6.88;;;2.80;;
42146;SDS011;27815;43.410;11.852;2022-07-01T05:47:18;4.65;;;2.20;;
42146;SDS011;27815;43.410;11.852;2022-07-01T05:51:21;4.25;;;2.33;;
42146;SDS011;27815;43.410;11.852;2022-07-01T05:55:24;6.90;;;2.50;;
42146;SDS011;27815;43.410;11.852;2022-07-01T05:59:26;6.95;;;3.13;;
42146;SDS011;27815;43.410;11.852;2022-07-01T06:03:29;6.82;;;2.70;;
42146;SDS011;27815;43.410;11.852;2022-07-01T06:07:32;5.05;;;2.30;;
42146;SDS011;27815;43.410;11.852;2022-07-01T06:11:37;10.88;;;2.55;;
42146;SDS011;27815;43.410;11.852;2022-07-01T06:15:41;7.40;;;2.50;;
42146;SDS011;27815;43.410;11.852;2022-07-01T06:19:44;7.07;;;2.60;;
42146;SDS011;27815;43.410;11.852;2022-07-01T06:23:49;7.70;;;2.72;;
42146;SDS011;27815;43.410;11.852;2022-07-01T06:27:52;5.63;;;2.50;;
42146;SDS011;27815;43.410;11.852;2022-07-01T06:31:55;3.97;;;2.10;;
42146;SDS011;27815;43.410;11.852;2022-07-01T06:35:59;6.32;;;2.22;;
42146;SDS011;27815;43.410;11.852;2022-07-01T06:40:03;9.65;;;2.58;;
42146;SDS011;27815;43.410;11.852;2022-07-01T06:44:08;12.00;;;2.78;;
42146;SDS011;27815;43.410;11.852;2022-07-01T06:48:11;6.15;;;2.42;;
42146;SDS011;27815;43.410;11.852;2022-07-01T06:52:16;9.52;;;2.30;;
42146;SDS011;27815;43.410;11.852;2022-07-01T06:56:19;9.43;;;2.13;;
42146;SDS011;27815;43.410;11.852;2022-07-01T07:00:22;6.60;;;2.28;;
42146;SDS011;27815;43.410;11.852;2022-07-01T07:04:25;6.18;;;2.15;;
42146;SDS011;27815;43.410;11.852;2022-07-01T07:08:48;11.93;;;4.63;;
42146;SDS011;27815;43.410;11.852;2022-07-01T07:12:51;4.93;;;2.50;;
42146;SDS011;27815;43.410;11.852;2022-07-01T07:16:54;5.65;;;2.80;;
42146;SDS011;27815;43.410;11.852;2022-07-01T07:20:57;5.03;;;2.40;;
42146;SDS011;27815;43.410;11.852;2022-07-01T07:25:02;8.15;;;2.22;;
42146;SDS011;27815;43.410;11.852;2022-07-01T07:29:07;7.18;;;2.53;;
42146;SDS011;27815;43.410;11.852;2022-07-01T07:33:10;5.57;;;2.70;;
42146;SDS011;27815;43.410;11.852;2022-07-01T07:37:15;6.00;;;2.22;;
42146;SDS011;27815;43.410;11.852;2022-07-01T07:41:17;7.15;;;3.08;;
42146;SDS011;27815;43.410;11.852;2022-07-01T07:45:20;5.65;;;2.38;;
42146;SDS011;27815;43.410;11.852;2022-07-01T07:49:24;5.72;;;2.45;;
42146;SDS011;27815;43.410;11.852;2022-07-01T07:53:27;7.10;;;2.50;;
42146;SDS011;27815;43.410;11.852;2022-07-01T07:57:30;8.48;;;2.67;;
42146;SDS011;27815;43.410;11.852;2022-07-01T08:01:33;8.68;;;1.90;;
42146;SDS011;27815;43.410;11.852;2022-07-01T08:05:36;11.63;;;1.90;;
42146;SDS011;27815;43.410;11.852;2022-07-01T08:09:39;4.88;;;2.00;;
42146;SDS011;27815;43.410;11.852;2022-07-01T08:13:48;5.80;;;2.13;;
42146;SDS011;27815;43.410;11.852;2022-07-01T08:17:51;5.13;;;2.15;;
42146;SDS011;27815;43.410;11.852;2022-07-01T08:21:54;6.45;;;2.72;;
42146;SDS011;27815;43.410;11.852;2022-07-01T08:25:56;5.18;;;2.00;;
42146;SDS011;27815;43.410;11.852;2022-07-01T08:29:59;3.75;;;1.70;;
42146;SDS011;27815;43.410;11.852;2022-07-01T08:34:03;4.07;;;1.63;;
42146;SDS011;27815;43.410;11.852;2022-07-01T08:38:07;6.05;;;2.08;;
42146;SDS011;27815;43.410;11.852;2022-07-01T08:42:10;11.13;;;2.20;;
42146;SDS011;27815;43.410;11.852;2022-07-01T08:46:13;4.72;;;1.63;;
42146;SDS011;27815;43.410;11.852;2022-07-01T08:50:16;6.50;;;2.45;;
42146;SDS011;27815;43.410;11.852;2022-07-01T08:54:24;3.05;;;1.70;;
42146;SDS011;27815;43.410;11.852;2022-07-01T08:58:27;4.55;;;1.60;;
42146;SDS011;27815;43.410;11.852;2022-07-01T09:02:49;4.30;;;1.60;;
42146;SDS011;27815;43.410;11.852;2022-07-01T09:07:01;5.15;;;1.30;;
42146;SDS011;27815;43.410;11.852;2022-07-01T09:11:20;7.30;;;1.50;;
42146;SDS011;27815;43.410;11.852;2022-07-01T09:15:27;4.32;;;1.20;;
42146;SDS011;27815;43.410;11.852;2022-07-01T09:19:33;2.97;;;1.42;;
42146;SDS011;27815;43.410;11.852;2022-07-01T09:23:47;4.60;;;1.30;;
42146;SDS011;27815;43.410;11.852;2022-07-01T09:28:07;2.45;;;1.55;;
42146;SDS011;27815;43.410;11.852;2022-07-01T09:32:22;2.58;;;1.10;;
42146;SDS011;27815;43.410;11.852;2022-07-01T09:36:28;3.20;;;1.35;;
42146;SDS011;27815;43.410;11.852;2022-07-01T09:45:01;2.58;;;0.93;;
42146;SDS011;27815;43.410;11.852;2022-07-01T09:49:09;3.08;;;1.02;;
42146;SDS011;27815;43.410;11.852;2022-07-01T09:53:16;2.65;;;1.17;;
42146;SDS011;27815;43.410;11.852;2022-07-01T09:57:22;3.47;;;1.17;;
42146;SDS011;27815;43.410;11.852;2022-07-01T10:01:26;2.72;;;1.05;;
42146;SDS011;27815;43.410;11.852;2022-07-01T10:05:37;2.47;;;1.08;;
42146;SDS011;27815;43.410;11.852;2022-07-01T10:10:02;6.20;;;1.48;;
42146;SDS011;27815;43.410;11.852;2022-07-01T10:14:37;5.45;;;1.35;;
42146;SDS011;27815;43.410;11.852;2022-07-01T10:18:43;2.00;;;1.05;;
42146;SDS011;27815;43.410;11.852;2022-07-01T10:22:50;3.03;;;1.30;;
42146;SDS011;27815;43.410;11.852;2022-07-01T10:26:59;2.53;;;1.13;;
42146;SDS011;27815;43.410;11.852;2022-07-01T10:35:07;5.13;;;1.20;;
42146;SDS011;27815;43.410;11.852;2022-07-01T10:39:13;2.58;;;1.35;;
42146;SDS011;27815;43.410;11.852;2022-07-01T10:43:17;1.67;;;1.00;;
42146;SDS011;27815;43.410;11.852;2022-07-01T10:47:38;2.22;;;1.02;;
42146;SDS011;27815;43.410;11.852;2022-07-01T10:51:42;2.80;;;1.00;;
42146;SDS011;27815;43.410;11.852;2022-07-01T10:55:53;4.05;;;1.13;;
42146;SDS011;27815;43.410;11.852;2022-07-01T11:04:02;3.75;;;1.27;;
42146;SDS011;27815;43.410;11.852;2022-07-01T11:08:05;4.82;;;1.63;;
42146;SDS011;27815;43.410;11.852;2022-07-01T11:12:14;5.57;;;1.30;;
42146;SDS011;27815;43.410;11.852;2022-07-01T11:16:20;4.85;;;1.40;;
42146;SDS011;27815;43.410;11.852;2022-07-01T11:20:25;7.30;;;1.50;;
42146;SDS011;27815;43.410;11.852;2022-07-01T11:24:29;3.75;;;1.30;;
42146;SDS011;27815;43.410;11.852;2022-07-01T11:28:36;3.00;;;1.30;;
42146;SDS011;27815;43.410;11.852;2022-07-01T11:32:42;5.40;;;1.60;;
42146;SDS011;27815;43.410;11.852;2022-07-01T11:41:19;3.25;;;1.48;;
42146;SDS011;27815;43.410;11.852;2022-07-01T11:45:31;3.20;;;1.25;;
42146;SDS011;27815;43.410;11.852;2022-07-01T11:49:34;6.15;;;1.60;;
42146;SDS011;27815;43.410;11.852;2022-07-01T11:53:47;3.47;;;1.45;;
42146;SDS011;27815;43.410;11.852;2022-07-01T11:57:53;4.07;;;1.90;;
42146;SDS011;27815;43.410;11.852;2022-07-01T12:01:57;5.35;;;2.40;;
42146;SDS011;27815;43.410;11.852;2022-07-01T12:06:00;6.00;;;1.58;;
42146;SDS011;27815;43.410;11.852;2022-07-01T12:10:03;8.60;;;2.00;;
42146;SDS011;27815;43.410;11.852;2022-07-01T12:14:06;5.40;;;1.98;;
42146;SDS011;27815;43.410;11.852;2022-07-01T12:18:11;4.43;;;1.63;;
42146;SDS011;27815;43.410;11.852;2022-07-01T12:22:15;6.28;;;2.15;;
42146;SDS011;27815;43.410;11.852;2022-07-01T12:26:21;4.07;;;1.80;;
42146;SDS011;27815;43.410;11.852;2022-07-01T12:30:24;7.20;;;2.00;;
42146;SDS011;27815;43.410;11.852;2022-07-01T12:38:47;4.43;;;2.10;;
42146;SDS011;27815;43.410;11.852;2022-07-01T12:47:32;4.53;;;2.05;;
42146;SDS011;27815;43.410;11.852;2022-07-01T12:51:35;6.60;;;2.00;;
42146;SDS011;27815;43.410;11.852;2022-07-01T12:55:39;4.88;;;2.25;;
42146;SDS011;27815;43.410;11.852;2022-07-01T12:59:42;8.40;;;2.80;;
42146;SDS011;27815;43.410;11.852;2022-07-01T13:03:49;6.72;;;2.30;;
42146;SDS011;27815;43.410;11.852;2022-07-01T13:07:55;6.43;;;2.22;;
42146;SDS011;27815;43.410;11.852;2022-07-01T13:12:00;6.20;;;2.63;;
42146;SDS011;27815;43.410;11.852;2022-07-01T13:16:03;7.35;;;2.10;;
42146;SDS011;27815;43.410;11.852;2022-07-01T13:20:07;8.80;;;2.53;;
42146;SDS011;27815;43.410;11.852;2022-07-01T13:24:10;5.45;;;1.95;;
42146;SDS011;27815;43.410;11.852;2022-07-01T13:28:34;5.55;;;1.63;;
42146;SDS011;27815;43.410;11.852;2022-07-01T13:32:41;4.70;;;2.05;;
42146;SDS011;27815;43.410;11.852;2022-07-01T13:36:53;6.55;;;2.05;;
42146;SDS011;27815;43.410;11.852;2022-07-01T13:40:57;6.40;;;2.20;;
42146;SDS011;27815;43.410;11.852;2022-07-01T13:45:00;9.80;;;2.50;;
42146;SDS011;27815;43.410;11.852;2022-07-01T13:49:03;5.20;;;1.88;;
42146;SDS011;27815;43.410;11.852;2022-07-01T13:53:06;5.25;;;1.95;;
42146;SDS011;27815;43.410;11.852;2022-07-01T13:57:09;4.45;;;1.85;;
42146;SDS011;27815;43.410;11.852;2022-07-01T14:01:13;4.22;;;1.65;;
42146;SDS011;27815;43.410;11.852;2022-07-01T14:05:19;5.32;;;2.38;;
42146;SDS011;27815;43.410;11.852;2022-07-01T14:09:23;4.43;;;2.05;;
42146;SDS011;27815;43.410;11.852;2022-07-01T14:13:31;6.05;;;1.70;;
42146;SDS011;27815;43.410;11.852;2022-07-01T14:17:36;4.93;;;1.90;;
42146;SDS011;27815;43.410;11.852;2022-07-01T14:21:39;4.72;;;1.90;;
42146;SDS011;27815;43.410;11.852;2022-07-01T14:25:47;7.47;;;2.22;;
42146;SDS011;27815;43.410;11.852;2022-07-01T14:29:52;6.57;;;2.20;;
42146;SDS011;27815;43.410;11.852;2022-07-01T14:33:59;7.00;;;1.80;;
42146;SDS011;27815;43.410;11.852;2022-07-01T14:38:03;4.07;;;1.50;;
42146;SDS011;27815;43.410;11.852;2022-07-01T14:42:06;6.32;;;1.88;;
42146;SDS011;27815;43.410;11.852;2022-07-01T14:46:09;5.15;;;1.70;;
42146;SDS011;27815;43.410;11.852;2022-07-01T14:50:16;8.35;;;2.00;;
42146;SDS011;27815;43.410;11.852;2022-07-01T14:54:19;3.80;;;1.55;;
42146;SDS011;27815;43.410;11.852;2022-07-01T14:58:25;4.93;;;1.90;;
42146;SDS011;27815;43.410;11.852;2022-07-01T15:02:28;4.40;;;1.60;;
42146;SDS011;27815;43.410;11.852;2022-07-01T15:06:32;3.75;;;1.83;;
42146;SDS011;27815;43.410;11.852;2022-07-01T15:10:34;5.35;;;1.88;;
42146;SDS011;27815;43.410;11.852;2022-07-01T15:14:37;5.20;;;2.13;;
42146;SDS011;27815;43.410;11.852;2022-07-01T15:18:44;7.63;;;1.90;;
42146;SDS011;27815;43.410;11.852;2022-07-01T15:22:48;3.90;;;1.50;;
42146;SDS011;27815;43.410;11.852;2022-07-01T15:26:52;6.97;;;2.17;;
42146;SDS011;27815;43.410;11.852;2022-07-01T15:31:03;5.10;;;1.88;;
42146;SDS011;27815;43.410;11.852;2022-07-01T15:35:06;4.53;;;2.00;;
42146;SDS011;27815;43.410;11.852;2022-07-01T15:39:11;6.55;;;1.77;;
42146;SDS011;27815;43.410;11.852;2022-07-01T15:43:15;4.50;;;1.60;;
42146;SDS011;27815;43.410;11.852;2022-07-01T15:47:17;5.53;;;1.80;;
42146;SDS011;27815;43.410;11.852;2022-07-01T15:51:38;4.63;;;2.10;;
42146;SDS011;27815;43.410;11.852;2022-07-01T15:55:42;7.25;;;1.75;;
42146;SDS011;27815;43.410;11.852;2022-07-01T15:59:46;4.20;;;1.95;;
42146;SDS011;27815;43.410;11.852;2022-07-01T16:03:50;5.13;;;1.88;;
42146;SDS011;27815;43.410;11.852;2022-07-01T16:08:02;10.13;;;2.17;;
42146;SDS011;27815;43.410;11.852;2022-07-01T16:12:07;5.72;;;2.10;;
42146;SDS011;27815;43.410;11.852;2022-07-01T16:16:10;4.15;;;2.00;;
42146;SDS011;27815;43.410;11.852;2022-07-01T16:20:18;6.15;;;2.10;;
42146;SDS011;27815;43.410;11.852;2022-07-01T16:24:22;4.53;;;2.30;;
42146;SDS011;27815;43.410;11.852;2022-07-01T16:28:26;6.30;;;2.17;;
42146;SDS011;27815;43.410;11.852;2022-07-01T16:32:30;4.72;;;2.13;;
42146;SDS011;27815;43.410;11.852;2022-07-01T16:36:34;4.13;;;1.88;;
42146;SDS011;27815;43.410;11.852;2022-07-01T16:40:42;6.47;;;2.03;;
42146;SDS011;27815;43.410;11.852;2022-07-01T16:44:59;6.28;;;2.13;;
42146;SDS011;27815;43.410;11.852;2022-07-01T16:49:19;7.22;;;2.10;;
42146;SDS011;27815;43.410;11.852;2022-07-01T16:53:38;5.25;;;2.25;;
42146;SDS011;27815;43.410;11.852;2022-07-01T16:57:48;11.70;;;2.33;;
42146;SDS011;27815;43.410;11.852;2022-07-01T17:01:58;7.30;;;2.00;;
42146;SDS011;27815;43.410;11.852;2022-07-01T17:06:02;6.97;;;2.13;;
42146;SDS011;27815;43.410;11.852;2022-07-01T17:10:05;3.97;;;1.80;;
42146;SDS011;27815;43.410;11.852;2022-07-01T17:14:09;8.77;;;1.95;;
42146;SDS011;27815;43.410;11.852;2022-07-01T17:18:14;4.60;;;1.73;;
42146;SDS011;27815;43.410;11.852;2022-07-01T17:23:02;6.25;;;2.08;;
42146;SDS011;27815;43.410;11.852;2022-07-01T17:35:50;7.50;;;1.92;;
42146;SDS011;27815;43.410;11.852;2022-07-01T17:40:00;4.05;;;1.50;;
42146;SDS011;27815;43.410;11.852;2022-07-01T17:44:09;7.07;;;1.60;;
42146;SDS011;27815;43.410;11.852;2022-07-01T17:48:15;6.57;;;1.80;;
42146;SDS011;27815;43.410;11.852;2022-07-01T17:52:19;3.50;;;1.23;;
42146;SDS011;27815;43.410;11.852;2022-07-01T17:56:22;7.70;;;1.23;;
42146;SDS011;27815;43.410;11.852;2022-07-01T18:00:26;11.10;;;1.63;;
42146;SDS011;27815;43.410;11.852;2022-07-01T18:04:29;5.88;;;1.45;;
42146;SDS011;27815;43.410;11.852;2022-07-01T18:08:33;6.63;;;1.67;;
42146;SDS011;27815;43.410;11.852;2022-07-01T18:12:41;4.80;;;1.60;;
42146;SDS011;27815;43.410;11.852;2022-07-01T18:16:52;4.80;;;1.60;;
42146;SDS011;27815;43.410;11.852;2022-07-01T18:21:10;4.57;;;1.50;;
42146;SDS011;27815;43.410;11.852;2022-07-01T18:25:21;6.15;;;1.50;;
42146;SDS011;27815;43.410;11.852;2022-07-01T18:29:25;3.83;;;1.52;;
42146;SDS011;27815;43.410;11.852;2022-07-01T18:33:31;4.25;;;1.58;;
42146;SDS011;27815;43.410;11.852;2022-07-01T18:41:56;5.35;;;1.60;;
42146;SDS011;27815;43.410;11.852;2022-07-01T18:45:59;4.75;;;1.73;;
42146;SDS011;27815;43.410;11.852;2022-07-01T18:50:02;5.25;;;1.50;;
42146;SDS011;27815;43.410;11.852;2022-07-01T18:54:06;4.22;;;1.55;;
42146;SDS011;27815;43.410;11.852;2022-07-01T18:58:09;6.22;;;1.50;;
42146;SDS011;27815;43.410;11.852;2022-07-01T19:02:13;5.32;;;1.60;;
42146;SDS011;27815;43.410;11.852;2022-07-01T19:06:18;3.00;;;1.17;;
42146;SDS011;27815;43.410;11.852;2022-07-01T19:10:21;6.93;;;1.40;;
42146;SDS011;27815;43.410;11.852;2022-07-01T19:14:24;4.57;;;1.30;;
42146;SDS011;27815;43.410;11.852;2022-07-01T19:18:27;6.82;;;2.20;;
42146;SDS011;27815;43.410;11.852;2022-07-01T19:22:33;8.95;;;2.20;;
42146;SDS011;27815;43.410;11.852;2022-07-01T19:26:37;5.30;;;1.80;;
42146;SDS011;27815;43.410;11.852;2022-07-01T19:30:40;4.20;;;1.60;;
42146;SDS011;27815;43.410;11.852;2022-07-01T19:34:48;3.42;;;1.33;;
42146;SDS011;27815;43.410;11.852;2022-07-01T19:38:51;4.68;;;1.38;;
42146;SDS011;27815;43.410;11.852;2022-07-01T19:42:54;5.18;;;1.77;;
42146;SDS011;27815;43.410;11.852;2022-07-01T19:46:57;4.95;;;1.35;;
42146;SDS011;27815;43.410;11.852;2022-07-01T19:51:00;6.50;;;1.42;;
42146;SDS011;27815;43.410;11.852;2022-07-01T19:55:05;4.88;;;1.70;;
42146;SDS011;27815;43.410;11.852;2022-07-01T19:59:08;5.65;;;1.67;;
42146;SDS011;27815;43.410;11.852;2022-07-01T20:03:11;5.82;;;1.70;;
42146;SDS011;27815;43.410;11.852;2022-07-01T20:07:15;4.13;;;1.48;;
42146;SDS011;27815;43.410;11.852;2022-07-01T20:11:19;4.10;;;1.63;;
42146;SDS011;27815;43.410;11.852;2022-07-01T20:15:22;5.65;;;1.60;;
42146;SDS011;27815;43.410;11.852;2022-07-01T20:19:25;8.00;;;1.85;;
42146;SDS011;27815;43.410;11.852;2022-07-01T20:23:28;4.18;;;1.73;;
42146;SDS011;27815;43.410;11.852;2022-07-01T20:27:31;5.50;;;1.60;;
42146;SDS011;27815;43.410;11.852;2022-07-01T20:31:34;5.05;;;1.73;;
42146;SDS011;27815;43.410;11.852;2022-07-01T20:35:37;6.22;;;1.70;;
42146;SDS011;27815;43.410;11.852;2022-07-01T20:39:40;5.00;;;1.90;;
42146;SDS011;27815;43.410;11.852;2022-07-01T20:43:43;4.25;;;1.67;;
42146;SDS011;27815;43.410;11.852;2022-07-01T20:47:46;5.20;;;1.60;;
42146;SDS011;27815;43.410;11.852;2022-07-01T20:51:49;7.55;;;1.95;;
42146;SDS011;27815;43.410;11.852;2022-07-01T20:55:52;4.82;;;1.50;;
42146;SDS011;27815;43.410;11.852;2022-07-01T20:59:55;4.95;;;1.58;;
42146;SDS011;27815;43.410;11.852;2022-07-01T21:03:58;4.85;;;1.45;;
42146;SDS011;27815;43.410;11.852;2022-07-01T21:08:00;5.78;;;1.30;;
42146;SDS011;27815;43.410;11.852;2022-07-01T21:12:05;5.07;;;1.58;;
42146;SDS011;27815;43.410;11.852;2022-07-01T21:16:08;4.57;;;1.67;;
42146;SDS011;27815;43.410;11.852;2022-07-01T21:20:11;4.78;;;1.60;;
42146;SDS011;27815;43.410;11.852;2022-07-01T21:24:22;6.50;;;1.65;;
42146;SDS011;27815;43.410;11.852;2022-07-01T21:28:24;3.30;;;1.30;;
42146;SDS011;27815;43.410;11.852;2022-07-01T21:32:27;4.97;;;1.55;;
42146;SDS011;27815;43.410;11.852;2022-07-01T21:36:30;3.53;;;1.45;;
42146;SDS011;27815;43.410;11.852;2022-07-01T21:40:33;4.07;;;1.65;;
42146;SDS011;27815;43.410;11.852;2022-07-01T21:44:37;5.55;;;1.67;;
42146;SDS011;27815;43.410;11.852;2022-07-01T21:48:44;3.63;;;1.42;;
42146;SDS011;27815;43.410;11.852;2022-07-01T21:52:48;5.85;;;1.63;;
42146;SDS011;27815;43.410;11.852;2022-07-01T21:56:52;5.13;;;1.58;;
42146;SDS011;27815;43.410;11.852;2022-07-01T22:00:55;4.65;;;1.23;;
42146;SDS011;27815;43.410;11.852;2022-07-01T22:05:01;7.80;;;1.50;;
42146;SDS011;27815;43.410;11.852;2022-07-01T22:09:05;5.47;;;1.50;;
42146;SDS011;27815;43.410;11.852;2022-07-01T22:13:08;4.35;;;1.58;;
42146;SDS011;27815;43.410;11.852;2022-07-01T22:17:12;5.30;;;1.70;;
42146;SDS011;27815;43.410;11.852;2022-07-01T22:21:16;3.75;;;1.63;;
42146;SDS011;27815;43.410;11.852;2022-07-01T22:25:22;5.90;;;1.33;;
42146;SDS011;27815;43.410;11.852;2022-07-01T22:29:25;3.17;;;1.48;;
42146;SDS011;27815;43.410;11.852;2022-07-01T22:33:30;3.83;;;1.30;;
42146;SDS011;27815;43.410;11.852;2022-07-01T22:37:33;6.43;;;1.38;;
42146;SDS011;27815;43.410;11.852;2022-07-01T22:41:38;5.50;;;1.30;;
42146;SDS011;27815;43.410;11.852;2022-07-01T22:45:44;3.03;;;1.30;;
42146;SDS011;27815;43.410;11.852;2022-07-01T22:54:24;2.78;;;1.20;;
42146;SDS011;27815;43.410;11.852;2022-07-01T22:58:47;6.35;;;1.30;;
42146;SDS011;27815;43.410;11.852;2022-07-01T23:03:01;3.10;;;1.23;;
42146;SDS011;27815;43.410;11.852;2022-07-01T23:11:18;2.88;;;1.13;;
42146;SDS011;27815;43.410;11.852;2022-07-01T23:15:36;3.88;;;1.13;;
42146;SDS011;27815;43.410;11.852;2022-07-01T23:19:59;3.00;;;1.10;;
42146;SDS011;27815;43.410;11.852;2022-07-01T23:24:04;4.78;;;1.35;;
42146;SDS011;27815;43.410;11.852;2022-07-01T23:28:10;5.28;;;1.33;;
42146;SDS011;27815;43.410;11.852;2022-07-01T23:32:14;6.05;;;1.40;;
42146;SDS011;27815;43.410;11.852;2022-07-01T23:36:18;2.65;;;1.17;;
42146;SDS011;27815;43.410;11.852;2022-07-01T23:40:22;2.67;;;0.90;;
42146;SDS011;27815;43.410;11.852;2022-07-01T23:44:26;4.30;;;1.20;;
42146;SDS011;27815;43.410;11.852;2022-07-01T23:48:29;4.43;;;1.23;;
42146;SDS011;27815;43.410;11.852;2022-07-01T23:52:32;2.63;;;1.25;;
42146;SDS011;27815;43.410;11.852;2022-07-01T23:56:36;1.63;;;0.90;;
